createdAt,value
2023-03-15T00:00:55.778Z,99172.56
2023-03-15T00:03:24.340Z,99169.72
2023-03-15T00:05:52.395Z,99165.63
2023-03-15T00:08:19.695Z,99162.81
2023-03-15T00:10:46.855Z,99159.13
2023-03-15T00:13:14.890Z,99161.44
2023-03-15T00:15:52.131Z,99151.63
2023-03-15T00:18:19.852Z,99157.53
2023-03-15T00:20:47.159Z,99155.78
2023-03-15T00:23:14.226Z,99163.03
2023-03-15T00:25:41.075Z,99166.75
2023-03-15T00:28:07.529Z,99175.34
2023-03-15T00:30:34.115Z,99175.13
2023-03-15T00:33:00.516Z,99171.84
2023-03-15T00:35:27.052Z,99173.56
2023-03-15T00:37:56.803Z,99181.97
2023-03-15T00:40:24.286Z,99181.03
2023-03-15T00:42:51.174Z,99184.09
2023-03-15T00:45:22.067Z,99187.44
2023-03-15T00:47:52.527Z,99188.84
2023-03-15T00:50:19.813Z,99188.59
2023-03-15T00:52:47.289Z,99194.78
2023-03-15T00:55:16.992Z,99192.34
2023-03-15T00:57:45.375Z,99197.47
2023-03-15T01:00:20.360Z,99193.22
2023-03-15T01:02:47.425Z,99205.91
2023-03-15T01:05:14.839Z,99209.97
2023-03-15T01:07:41.310Z,99209.69
2023-03-15T01:10:08.279Z,99216.25
2023-03-15T01:12:34.923Z,99215.38
2023-03-15T01:15:03.288Z,99219.03
2023-03-15T01:17:29.735Z,99224.88
2023-03-15T01:19:56.373Z,99230.03
2023-03-15T01:22:22.815Z,99234.09
2023-03-15T01:24:49.321Z,99237.75
2023-03-15T01:27:15.787Z,99242.28
2023-03-15T01:29:42.293Z,99245.59
2023-03-15T01:32:08.914Z,99249.94
2023-03-15T01:34:35.988Z,99247.31
2023-03-15T01:37:03.069Z,99247.97
2023-03-15T01:39:30.741Z,99249.13
2023-03-15T01:41:57.191Z,99253.06
2023-03-15T01:44:26.816Z,99250.50
2023-03-15T01:46:53.441Z,99250.25
2023-03-15T01:49:29.304Z,99254.63
2023-03-15T01:51:59.534Z,99249.28
2023-03-15T01:54:34.364Z,99249.56
2023-03-15T01:57:08.525Z,99244.22
2023-03-15T01:59:38.612Z,99247.78
2023-03-15T02:02:05.428Z,99247.41
2023-03-15T02:04:55.107Z,99249.44
2023-03-15T02:07:23.221Z,99253.09
2023-03-15T02:10:05.505Z,99252.63
2023-03-15T02:12:35.026Z,99255.41
2023-03-15T02:15:04.935Z,99257.31
2023-03-15T02:17:40.169Z,99263.00
2023-03-15T02:20:18.470Z,99255.53
2023-03-15T02:22:56.113Z,99258.69
2023-03-15T02:25:37.983Z,99267.41
2023-03-15T02:28:06.420Z,99258.19
2023-03-15T02:30:32.988Z,99257.31
2023-03-15T02:33:01.381Z,99254.91
2023-03-15T02:35:31.599Z,99254.41
2023-03-15T02:37:58.927Z,99253.91
2023-03-15T02:40:27.876Z,99263.13
2023-03-15T02:43:07.146Z,99260.50
2023-03-15T02:45:33.825Z,99272.25
2023-03-15T02:48:00.807Z,99269.56
2023-03-15T02:50:27.338Z,99273.38
2023-03-15T02:52:53.807Z,99281.97
2023-03-15T02:55:21.771Z,99267.44
2023-03-15T02:57:48.799Z,99262.47
2023-03-15T03:00:15.560Z,99273.63
2023-03-15T03:02:43.845Z,99269.56
2023-03-15T03:05:14.251Z,99271.09
2023-03-15T03:07:44.117Z,99267.53
2023-03-15T03:10:12.597Z,99271.44
2023-03-15T03:12:39.123Z,99272.09
2023-03-15T03:15:06.233Z,99273.63
2023-03-15T03:17:37.267Z,99266.16
2023-03-15T03:20:08.014Z,99273.63
2023-03-15T03:22:34.849Z,99268.81
2023-03-15T03:25:01.263Z,99274.13
2023-03-15T03:27:27.686Z,99273.34
2023-03-15T03:29:54.184Z,99279.19
2023-03-15T03:32:20.793Z,99281.19
2023-03-15T03:34:48.379Z,99267.53
2023-03-15T03:37:19.198Z,99271.94
2023-03-15T03:39:45.783Z,99277.16
2023-03-15T03:42:12.389Z,99289.03
2023-03-15T03:44:38.841Z,99302.28
2023-03-15T03:47:05.504Z,99310.22
2023-03-15T03:49:31.950Z,99309.72
2023-03-15T03:52:00.307Z,99304.22
2023-03-15T03:54:27.786Z,99312.50
2023-03-15T03:56:54.399Z,99315.13
2023-03-15T03:59:20.874Z,99321.94
2023-03-15T04:01:48.240Z,99320.16
2023-03-15T04:04:14.826Z,99307.31
2023-03-15T04:06:45.917Z,99311.75
2023-03-15T04:09:16.410Z,99324.88
2023-03-15T04:11:43.648Z,99323.88
2023-03-15T04:14:11.435Z,99329.56
2023-03-15T04:16:38.241Z,99324.63
2023-03-15T04:19:04.890Z,99323.09
2023-03-15T04:21:32.031Z,99339.91
2023-03-15T04:23:59.587Z,99339.25
2023-03-15T04:26:26.787Z,99339.50
2023-03-15T04:28:54.749Z,99343.69
2023-03-15T04:31:21.862Z,99349.72
2023-03-15T04:33:48.307Z,99344.66
2023-03-15T04:36:18.853Z,99343.44
2023-03-15T04:38:48.587Z,99336.94
2023-03-15T04:41:16.065Z,99339.09
2023-03-15T04:43:42.889Z,99338.25
2023-03-15T04:46:09.855Z,99338.09
2023-03-15T04:48:37.274Z,99340.28
2023-03-15T04:51:03.844Z,99344.06
2023-03-15T04:53:30.307Z,99339.50
2023-03-15T04:55:56.716Z,99343.31
2023-03-15T04:58:23.169Z,99348.13
2023-03-15T05:00:49.739Z,99345.63
2023-03-15T05:03:16.227Z,99353.44
2023-03-15T05:05:42.807Z,99352.56
2023-03-15T05:08:09.239Z,99349.53
2023-03-15T05:10:35.663Z,99357.66
2023-03-15T05:13:02.138Z,99357.53
2023-03-15T05:15:28.709Z,99365.88
2023-03-15T05:17:55.861Z,99361.28
2023-03-15T05:20:22.973Z,99360.56
2023-03-15T05:22:49.482Z,99363.06
2023-03-15T05:25:15.962Z,99360.41
2023-03-15T05:27:42.431Z,99366.88
2023-03-15T05:30:09.565Z,99357.91
2023-03-15T05:32:39.453Z,99368.38
2023-03-15T05:35:07.485Z,99363.84
2023-03-15T05:37:34.047Z,99358.78
2023-03-15T05:40:01.383Z,99367.66
2023-03-15T05:42:27.851Z,99374.34
2023-03-15T05:44:54.412Z,99374.97
2023-03-15T05:47:21.211Z,99377.72
2023-03-15T05:49:47.716Z,99389.50
2023-03-15T05:52:14.608Z,99396.88
2023-03-15T05:54:41.238Z,99394.75
2023-03-15T05:57:07.817Z,99405.09
2023-03-15T05:59:34.550Z,99402.31
2023-03-15T06:02:01.187Z,99405.44
2023-03-15T06:04:27.733Z,99407.50
2023-03-15T06:06:54.224Z,99406.84
2023-03-15T06:09:20.702Z,99404.84
2023-03-15T06:11:47.169Z,99402.84
2023-03-15T06:14:13.688Z,99407.88
2023-03-15T06:16:40.206Z,99402.84
2023-03-15T06:19:06.706Z,99408.44
2023-03-15T06:21:33.251Z,99408.84
2023-03-15T06:23:59.693Z,99413.00
2023-03-15T06:26:26.210Z,99413.66
2023-03-15T06:28:52.686Z,99399.72
2023-03-15T06:31:19.195Z,99401.25
2023-03-15T06:33:45.683Z,99399.84
2023-03-15T06:36:12.533Z,99397.59
2023-03-15T06:38:38.993Z,99397.84
2023-03-15T06:41:05.429Z,99397.69
2023-03-15T06:43:31.902Z,99399.88
2023-03-15T06:46:00.001Z,99404.69
2023-03-15T06:48:27.694Z,99414.31
2023-03-15T06:50:54.274Z,99408.22
2023-03-15T06:53:20.994Z,99409.09
2023-03-15T06:55:47.698Z,99412.03
2023-03-15T06:58:15.382Z,99409.50
2023-03-15T07:00:42.201Z,99402.66
2023-03-15T07:03:08.728Z,99416.44
2023-03-15T07:05:35.179Z,99413.16
2023-03-15T07:08:01.617Z,99416.19
2023-03-15T07:10:28.117Z,99416.44
2023-03-15T07:12:54.827Z,99416.06
2023-03-15T07:15:21.312Z,99413.78
2023-03-15T07:17:47.724Z,99418.34
2023-03-15T07:20:14.222Z,99419.63
2023-03-15T07:22:40.735Z,99416.84
2023-03-15T07:25:07.610Z,99419.63
2023-03-15T07:27:34.266Z,99421.66
2023-03-15T07:30:01.162Z,99424.31
2023-03-15T07:32:27.682Z,99420.78
2023-03-15T07:34:58.168Z,99427.72
2023-03-15T07:37:24.686Z,99429.38
2023-03-15T07:39:51.172Z,99430.00
2023-03-15T07:42:17.650Z,99427.88
2023-03-15T07:44:44.239Z,99434.31
2023-03-15T07:47:10.948Z,99430.75
2023-03-15T07:49:37.460Z,99432.78
2023-03-15T07:52:04.131Z,99431.78
2023-03-15T07:54:31.934Z,99433.81
2023-03-15T07:56:58.472Z,99433.81
2023-03-15T07:59:25.036Z,99438.34
2023-03-15T08:01:51.525Z,99441.66
2023-03-15T08:04:18.006Z,99445.19
2023-03-15T08:06:44.476Z,99452.53
2023-03-15T08:09:12.057Z,99455.19
2023-03-15T08:11:38.562Z,99456.09
2023-03-15T08:14:05.754Z,99455.31
2023-03-15T08:16:32.209Z,99463.56
2023-03-15T08:18:58.869Z,99464.94
2023-03-15T08:21:25.304Z,99465.19
2023-03-15T08:23:51.752Z,99471.38
2023-03-15T08:26:18.209Z,99459.34
2023-03-15T08:28:44.698Z,99467.44
2023-03-15T08:31:13.855Z,99476.81
2023-03-15T08:33:40.644Z,99475.28
2023-03-15T08:36:07.323Z,99474.03
2023-03-15T08:38:33.978Z,99479.34
2023-03-15T08:41:00.475Z,99480.34
2023-03-15T08:43:26.986Z,99482.00
2023-03-15T08:46:01.829Z,99486.44
2023-03-15T08:48:29.328Z,99493.78
2023-03-15T08:50:57.241Z,99497.31
2023-03-15T08:53:23.666Z,99496.03
2023-03-15T08:55:50.180Z,99492.59
2023-03-15T08:58:19.355Z,99501.84
2023-03-15T09:00:46.237Z,99501.44
2023-03-15T09:03:12.771Z,99505.41
2023-03-15T09:05:40.276Z,99503.44
2023-03-15T09:08:06.731Z,99496.22
2023-03-15T09:10:34.458Z,99499.59
2023-03-15T09:13:00.907Z,99498.91
2023-03-15T09:15:27.384Z,99505.94
2023-03-15T09:17:53.857Z,99500.06
2023-03-15T09:20:22.808Z,99506.03
2023-03-15T09:22:57.543Z,99512.31
2023-03-15T09:25:25.162Z,99519.88
2023-03-15T09:27:51.892Z,99522.34
2023-03-15T09:30:18.805Z,99519.50
2023-03-15T09:32:45.915Z,99517.31
2023-03-15T09:35:18.366Z,99524.19
2023-03-15T09:37:45.797Z,99527.28
2023-03-15T09:40:17.767Z,99527.75
2023-03-15T09:43:07.297Z,99533.06
2023-03-15T09:45:55.593Z,99526.88
2023-03-15T09:48:32.974Z,99527.13
2023-03-15T09:51:16.214Z,99520.94
2023-03-15T09:53:52.905Z,99537.53
2023-03-15T09:56:28.454Z,99541.81
2023-03-15T09:58:58.689Z,99536.44
2023-03-15T10:01:30.083Z,99538.66
2023-03-15T10:03:56.659Z,99544.19
2023-03-15T10:06:36.557Z,99548.50
2023-03-15T10:09:10.891Z,99549.28
2023-03-15T10:11:56.165Z,99551.28
2023-03-15T10:14:33.728Z,99546.44
2023-03-15T10:17:04.713Z,99548.53
2023-03-15T10:19:37.222Z,99549.78
2023-03-15T10:22:11.163Z,99555.31
2023-03-15T10:24:43.487Z,99555.41
2023-03-15T10:27:17.589Z,99554.63
2023-03-15T10:29:44.276Z,99560.72
2023-03-15T10:32:18.114Z,99556.66
2023-03-15T10:34:55.975Z,99559.19
2023-03-15T10:37:23.813Z,99552.88
2023-03-15T10:39:55.207Z,99548.69
2023-03-15T10:42:30.874Z,99561.28
2023-03-15T10:44:58.400Z,99559.19
2023-03-15T10:47:26.076Z,99550.00
2023-03-15T10:49:59.406Z,99549.31
2023-03-15T10:52:35.471Z,99545.81
2023-03-15T10:55:05.714Z,99554.28
2023-03-15T10:57:39.169Z,99551.56
2023-03-15T11:00:23.980Z,99554.84
2023-03-15T11:02:52.432Z,99555.06
2023-03-15T11:05:19.972Z,99551.75
2023-03-15T11:07:55.347Z,99552.19
2023-03-15T11:10:25.147Z,99545.75
2023-03-15T11:13:09.497Z,99550.63
2023-03-15T11:15:35.930Z,99556.69
2023-03-15T11:18:02.485Z,99554.59
2023-03-15T11:20:32.003Z,99555.50
2023-03-15T11:23:00.029Z,99564.38
2023-03-15T11:25:31.377Z,99559.50
2023-03-15T11:27:58.139Z,99562.72
2023-03-15T11:30:29.149Z,99562.63
2023-03-15T11:32:56.142Z,99571.06
2023-03-15T11:35:33.108Z,99563.41
2023-03-15T11:38:15.691Z,99567.41
2023-03-15T11:40:49.026Z,99561.75
2023-03-15T11:43:22.144Z,99565.06
2023-03-15T11:45:55.755Z,99563.53
2023-03-15T11:48:36.406Z,99560.03
2023-03-15T11:51:03.080Z,99560.06
2023-03-15T11:53:46.193Z,99562.44
2023-03-15T11:56:44.296Z,99559.66
2023-03-15T11:59:12.927Z,99553.34
2023-03-15T12:01:51.695Z,99559.44
2023-03-15T12:04:24.342Z,99562.94
2023-03-15T12:06:55.747Z,99559.03
2023-03-15T12:09:48.296Z,99571.63
2023-03-15T12:12:26.808Z,99563.75
2023-03-15T12:15:14.836Z,99570.53
2023-03-15T12:17:45.646Z,99577.53
2023-03-15T12:20:12.046Z,99579.69
2023-03-15T12:22:42.243Z,99576.25
2023-03-15T12:25:16.022Z,99574.81
2023-03-15T12:27:56.677Z,99577.56
2023-03-15T12:30:39.515Z,99572.66
2023-03-15T12:33:14.132Z,99572.84
2023-03-15T12:35:41.359Z,99584.22
2023-03-15T12:38:38.496Z,99580.69
2023-03-15T12:41:10.005Z,99577.56
2023-03-15T12:43:44.844Z,99585.13
2023-03-15T12:46:46.796Z,99573.03
2023-03-15T12:49:14.711Z,99574.63
2023-03-15T12:51:44.261Z,99571.25
2023-03-15T12:54:14.190Z,99570.88
2023-03-15T12:56:43.844Z,99581.44
2023-03-15T12:59:17.124Z,99570.34
2023-03-15T13:01:43.585Z,99574.75
2023-03-15T13:04:11.482Z,99565.38
2023-03-15T13:06:44.598Z,99565.22
2023-03-15T13:09:35.969Z,99564.19
2023-03-15T13:12:08.682Z,99562.13
2023-03-15T13:14:50.155Z,99557.53
2023-03-15T13:17:42.970Z,99552.09
2023-03-15T13:20:20.606Z,99544.38
2023-03-15T13:22:56.458Z,99545.53
2023-03-15T13:25:46.591Z,99557.72
2023-03-15T13:28:24.566Z,99548.66
2023-03-15T13:30:55.609Z,99553.09
2023-03-15T13:33:31.908Z,99558.69
2023-03-15T13:36:00.987Z,99550.03
2023-03-15T13:38:37.603Z,99552.38
2023-03-15T13:41:06.838Z,99541.47
2023-03-15T13:43:38.484Z,99540.41
2023-03-15T13:46:05.665Z,99541.78
2023-03-15T13:48:34.631Z,99542.25
2023-03-15T13:51:22.778Z,99537.34
2023-03-15T13:53:51.829Z,99546.88
2023-03-15T13:56:22.561Z,99532.53
2023-03-15T13:58:49.272Z,99531.94
2023-03-15T14:01:17.051Z,99526.59
2023-03-15T14:03:48.178Z,99531.13
2023-03-15T14:06:22.537Z,99532.31
2023-03-15T14:08:49.731Z,99536.78
2023-03-15T14:11:36.994Z,99530.31
2023-03-15T14:14:20.095Z,99532.41
2023-03-15T14:17:03.549Z,99539.34
2023-03-15T14:19:33.620Z,99536.78
2023-03-15T14:22:01.939Z,99537.13
2023-03-15T14:24:31.401Z,99537.88
2023-03-15T14:27:00.365Z,99539.63
2023-03-15T14:29:34.970Z,99536.50
2023-03-15T14:32:07.029Z,99536.25
2023-03-15T14:34:47.192Z,99533.16
2023-03-15T14:37:31.016Z,99546.66
2023-03-15T14:40:23.211Z,99541.47
2023-03-15T14:42:50.819Z,99549.06
2023-03-15T14:45:18.441Z,99555.19
2023-03-15T14:47:56.648Z,99558.41
2023-03-15T14:50:26.015Z,99564.72
2023-03-15T14:52:54.082Z,99561.91
2023-03-15T14:55:23.188Z,99564.94
2023-03-15T14:57:49.750Z,99574.28
2023-03-15T15:00:18.162Z,99570.72
2023-03-15T15:02:45.476Z,99573.22
2023-03-15T15:05:28.054Z,99591.91
2023-03-15T15:08:09.646Z,99583.47
2023-03-15T15:10:36.885Z,99588.78
2023-03-15T15:13:06.905Z,99584.56
2023-03-15T15:15:44.054Z,99589.69
2023-03-15T15:18:18.108Z,99599.50
2023-03-15T15:20:44.594Z,99604.78
2023-03-15T15:23:16.216Z,99597.13
2023-03-15T15:25:43.622Z,99595.59
2023-03-15T15:28:13.891Z,99591.38
2023-03-15T15:30:42.353Z,99588.56
2023-03-15T15:33:08.847Z,99587.56
2023-03-15T15:35:36.950Z,99586.00
2023-03-15T15:38:03.542Z,99574.19
2023-03-15T15:40:33.435Z,99575.00
2023-03-15T15:43:00.699Z,99577.44
2023-03-15T15:45:27.177Z,99575.84
2023-03-15T15:47:53.623Z,99577.13
2023-03-15T15:50:20.836Z,99576.19
2023-03-15T15:52:49.923Z,99576.63
2023-03-15T15:55:21.961Z,99578.81
2023-03-15T15:57:49.810Z,99586.13
2023-03-15T16:00:23.912Z,99579.03
2023-03-15T16:02:54.725Z,99588.06
2023-03-15T16:05:23.776Z,99576.06
2023-03-15T16:07:54.837Z,99574.63
2023-03-15T16:10:24.703Z,99581.00
2023-03-15T16:12:52.283Z,99574.72
2023-03-15T16:15:18.913Z,99572.94
2023-03-15T16:17:46.229Z,99578.00
2023-03-15T16:20:13.946Z,99576.69
2023-03-15T16:22:47.058Z,99577.03
2023-03-15T16:25:24.084Z,99578.47
2023-03-15T16:27:52.547Z,99577.91
2023-03-15T16:30:31.019Z,99577.53
2023-03-15T16:32:58.034Z,99584.59
2023-03-15T16:35:30.585Z,99586.09
2023-03-15T16:37:57.977Z,99586.38
2023-03-15T16:40:28.529Z,99590.72
2023-03-15T16:42:55.731Z,99586.38
2023-03-15T16:45:22.663Z,99590.63
2023-03-15T16:47:49.231Z,99595.63
2023-03-15T16:50:15.827Z,99589.41
2023-03-15T16:52:43.696Z,99589.34
2023-03-15T16:55:14.091Z,99585.13
2023-03-15T16:57:41.128Z,99588.16
2023-03-15T17:00:11.978Z,99584.44
2023-03-15T17:02:39.620Z,99584.63
2023-03-15T17:05:06.264Z,99588.78
2023-03-15T17:07:34.756Z,99591.09
2023-03-15T17:10:27.372Z,99584.06
2023-03-15T17:12:55.396Z,99584.66
2023-03-15T17:15:25.125Z,99590.44
2023-03-15T17:17:52.606Z,99587.66
2023-03-15T17:20:22.197Z,99589.38
2023-03-15T17:22:50.045Z,99589.94
2023-03-15T17:25:17.177Z,99594.06
2023-03-15T17:27:44.437Z,99592.97
2023-03-15T17:30:25.930Z,99598.28
2023-03-15T17:32:53.955Z,99594.63
2023-03-15T17:35:22.104Z,99596.09
2023-03-15T17:37:48.735Z,99597.28
2023-03-15T17:40:32.099Z,99595.19
2023-03-15T17:43:01.287Z,99601.38
2023-03-15T17:45:33.020Z,99608.78
2023-03-15T17:48:00.611Z,99613.25
2023-03-15T17:50:29.567Z,99617.75
2023-03-15T17:52:58.114Z,99608.88
2023-03-15T17:55:26.488Z,99609.84
2023-03-15T17:57:55.480Z,99614.16
2023-03-15T18:00:23.773Z,99619.25
2023-03-15T18:02:55.517Z,99618.63
2023-03-15T18:05:25.089Z,99625.34
2023-03-15T18:07:58.663Z,99622.28
2023-03-15T18:10:26.705Z,99627.38
2023-03-15T18:12:53.734Z,99626.41
2023-03-15T18:15:22.454Z,99631.53
2023-03-15T18:17:48.994Z,99632.50
2023-03-15T18:20:15.966Z,99634.75
2023-03-15T18:22:42.500Z,99640.97
2023-03-15T18:25:20.179Z,99649.44
2023-03-15T18:27:47.079Z,99642.44
2023-03-15T18:30:15.718Z,99643.00
2023-03-15T18:32:42.399Z,99647.88
2023-03-15T18:35:18.982Z,99643.44
2023-03-15T18:37:45.728Z,99641.91
2023-03-15T18:40:14.057Z,99649.22
2023-03-15T18:42:41.252Z,99641.69
2023-03-15T18:45:11.026Z,99644.66
2023-03-15T18:47:37.486Z,99646.44
2023-03-15T18:50:10.646Z,99650.75
2023-03-15T18:52:37.527Z,99647.63
2023-03-15T18:55:07.593Z,99659.59
2023-03-15T18:57:35.240Z,99659.41
2023-03-15T19:00:02.081Z,99665.59
2023-03-15T19:02:28.711Z,99658.47
2023-03-15T19:04:58.003Z,99655.63
2023-03-15T19:07:25.714Z,99654.25
2023-03-15T19:09:52.453Z,99659.81
2023-03-15T19:12:18.891Z,99652.94
2023-03-15T19:14:45.409Z,99655.19
2023-03-15T19:17:11.944Z,99659.59
2023-03-15T19:19:38.469Z,99663.78
2023-03-15T19:22:05.005Z,99663.91
2023-03-15T19:24:33.143Z,99664.09
2023-03-15T19:26:59.806Z,99662.31
2023-03-15T19:29:26.247Z,99660.66
2023-03-15T19:31:52.698Z,99663.31
2023-03-15T19:34:19.228Z,99664.19
2023-03-15T19:36:45.679Z,99667.09
2023-03-15T19:39:12.293Z,99675.22
2023-03-15T19:41:38.823Z,99667.81
2023-03-15T19:44:05.310Z,99675.34
2023-03-15T19:46:31.812Z,99672.69
2023-03-15T19:48:58.402Z,99675.44
2023-03-15T19:51:25.554Z,99669.91
2023-03-15T19:53:52.208Z,99686.59
2023-03-15T19:56:18.656Z,99679.09
2023-03-15T19:58:45.156Z,99677.69
2023-03-15T20:01:11.645Z,99679.50
2023-03-15T20:03:38.158Z,99670.59
2023-03-15T20:06:16.884Z,99683.56
2023-03-15T20:08:43.390Z,99674.72
2023-03-15T20:11:14.744Z,99674.47
2023-03-15T20:13:41.239Z,99673.69
2023-03-15T20:16:08.186Z,99676.53
2023-03-15T20:18:34.675Z,99677.31
2023-03-15T20:21:01.145Z,99681.91
2023-03-15T20:23:28.546Z,99682.63
2023-03-15T20:26:10.704Z,99692.34
2023-03-15T20:28:38.680Z,99683.53
2023-03-15T20:31:07.418Z,99689.84
2023-03-15T20:33:34.089Z,99681.88
2023-03-15T20:36:00.631Z,99682.94
2023-03-15T20:38:29.179Z,99686.00
2023-03-15T20:40:56.327Z,99693.28
2023-03-15T20:43:23.412Z,99701.38
2023-03-15T20:45:54.410Z,99698.00
2023-03-15T20:48:23.440Z,99695.88
2023-03-15T20:50:49.954Z,99695.09
2023-03-15T20:53:19.558Z,99696.75
2023-03-15T20:55:46.468Z,99694.94
2023-03-15T20:58:12.978Z,99694.41
2023-03-15T21:00:40.997Z,99687.19
2023-03-15T21:03:09.144Z,99683.69
2023-03-15T21:05:35.701Z,99680.69
2023-03-15T21:08:05.004Z,99688.69
2023-03-15T21:10:31.456Z,99681.72
2023-03-15T21:13:08.814Z,99685.84
2023-03-15T21:15:45.722Z,99685.28
2023-03-15T21:18:16.984Z,99687.50
2023-03-15T21:20:43.868Z,99686.84
2023-03-15T21:23:13.012Z,99689.66
2023-03-15T21:25:39.476Z,99695.38
2023-03-15T21:28:07.015Z,99689.41
2023-03-15T21:30:33.512Z,99681.59
2023-03-15T21:33:00.191Z,99689.97
2023-03-15T21:35:26.896Z,99689.41
2023-03-15T21:37:53.377Z,99689.72
2023-03-15T21:40:19.886Z,99692.50
2023-03-15T21:42:47.794Z,99692.34
2023-03-15T21:45:14.659Z,99688.41
2023-03-15T21:47:41.698Z,99690.75
2023-03-15T21:50:09.013Z,99687.97
2023-03-15T21:52:35.483Z,99691.03
2023-03-15T21:55:03.336Z,99698.91
2023-03-15T21:57:29.811Z,99691.03
2023-03-15T21:59:56.260Z,99681.78
2023-03-15T22:02:22.687Z,99690.56
2023-03-15T22:04:49.168Z,99688.91
2023-03-15T22:07:15.724Z,99693.84
2023-03-15T22:09:43.236Z,99691.06
2023-03-15T22:12:10.362Z,99691.06
2023-03-15T22:14:36.964Z,99683.19
2023-03-15T22:17:06.171Z,99682.41
2023-03-15T22:19:32.751Z,99679.13
2023-03-15T22:21:59.267Z,99671.13
2023-03-15T22:24:25.739Z,99672.50
2023-03-15T22:26:53.096Z,99667.72
2023-03-15T22:29:20.024Z,99669.38
2023-03-15T22:31:46.465Z,99668.34
2023-03-15T22:34:12.906Z,99680.63
2023-03-15T22:36:39.336Z,99677.09
2023-03-15T22:39:05.903Z,99674.16
2023-03-15T22:41:32.385Z,99677.84
2023-03-15T22:43:58.862Z,99673.78
2023-03-15T22:46:27.033Z,99667.34
2023-03-15T22:48:54.022Z,99683.69
2023-03-15T22:51:20.447Z,99681.13
2023-03-15T22:53:46.914Z,99681.88
2023-03-15T22:56:14.367Z,99672.22
2023-03-15T22:58:40.909Z,99674.28
2023-03-15T23:01:07.551Z,99666.91
2023-03-15T23:03:34.220Z,99671.84
2023-03-15T23:06:00.727Z,99678.03
2023-03-15T23:08:27.472Z,99675.25
2023-03-15T23:10:57.921Z,99675.75
2023-03-15T23:13:27.783Z,99669.44
2023-03-15T23:15:54.344Z,99676.38
2023-03-15T23:18:23.171Z,99674.25
2023-03-15T23:20:49.624Z,99674.38
2023-03-15T23:23:16.099Z,99678.00
2023-03-15T23:25:43.120Z,99674.34
2023-03-15T23:28:09.652Z,99676.31
2023-03-15T23:30:36.540Z,99675.44
2023-03-15T23:33:03.683Z,99678.97
2023-03-15T23:35:31.439Z,99683.25
2023-03-15T23:37:58.032Z,99679.47
2023-03-15T23:40:25.801Z,99679.84
2023-03-15T23:42:58.948Z,99683.22
2023-03-15T23:45:27.692Z,99691.78
2023-03-15T23:47:54.132Z,99697.41
2023-03-15T23:50:20.717Z,99692.06
2023-03-15T23:52:49.024Z,99689.81
2023-03-15T23:55:15.502Z,99696.00
2023-03-15T23:57:42.088Z,99690.28
